createdAt,value
2019-01-26T00:01:48.316Z,34.47
2019-01-26T00:04:15.552Z,35.17
2019-01-26T00:06:42.765Z,29.73
2019-01-26T00:12:03.501Z,31.17
2019-01-26T00:14:31.071Z,28.17
2019-01-26T00:16:58.297Z,29.27
2019-01-26T00:19:25.513Z,28.27
2019-01-26T00:21:52.730Z,29.63
2019-01-26T00:24:19.973Z,30.30
2019-01-26T00:26:47.186Z,29.90
2019-01-26T00:29:14.402Z,27.83
2019-01-26T00:31:41.654Z,28.20
2019-01-26T00:34:08.871Z,27.67
2019-01-26T00:36:36.118Z,32.40
2019-01-26T00:42:10.594Z,34.07
2019-01-26T00:44:38.121Z,40.27
2019-01-26T00:47:05.361Z,40.53
2019-01-26T00:49:32.837Z,41.73
2019-01-26T00:52:00.048Z,31.27
2019-01-26T00:54:27.313Z,32.83
2019-01-26T00:56:54.525Z,28.37
2019-01-26T00:59:22.046Z,32.13
2019-01-26T01:01:49.607Z,29.67
2019-01-26T01:04:16.826Z,32.47
2019-01-26T01:06:44.081Z,31.03
2019-01-26T01:09:11.294Z,27.03
2019-01-26T01:11:38.518Z,30.77
2019-01-26T01:14:05.821Z,29.33
2019-01-26T01:16:35.965Z,30.93
2019-01-26T01:19:02.268Z,30.57
2019-01-26T01:21:29.502Z,39.13
2019-01-26T01:23:56.737Z,37.90
2019-01-26T01:26:23.974Z,39.93
2019-01-26T01:28:51.214Z,35.97
2019-01-26T01:31:18.768Z,36.40
2019-01-26T01:33:46.105Z,31.00
2019-01-26T01:36:13.346Z,27.87
2019-01-26T01:38:40.574Z,19.83
2019-01-26T01:41:07.806Z,20.77
2019-01-26T01:43:35.017Z,24.77
2019-01-26T01:46:02.249Z,30.40
2019-01-26T01:48:29.486Z,42.97
2019-01-26T01:50:56.726Z,44.17
2019-01-26T01:53:23.954Z,42.83
2019-01-26T01:55:51.486Z,39.87
2019-01-26T01:58:18.727Z,34.50
2019-01-26T02:00:46.198Z,31.53
2019-01-26T02:03:13.758Z,28.17
2019-01-26T02:05:40.970Z,25.80
2019-01-26T02:08:08.205Z,24.20
2019-01-26T02:10:35.425Z,20.80
2019-01-26T02:13:02.659Z,16.60
2019-01-26T02:15:29.882Z,17.63
2019-01-26T02:17:57.094Z,13.63
2019-01-26T02:20:24.328Z,19.60
2019-01-26T02:22:51.866Z,19.50
2019-01-26T02:25:19.145Z,17.37
2019-01-26T02:27:46.377Z,17.67
2019-01-26T02:30:32.949Z,17.17
2019-01-26T02:33:00.182Z,14.33
2019-01-26T02:35:27.402Z,13.93
2019-01-26T02:37:54.638Z,16.50
2019-01-26T02:40:21.858Z,19.27
2019-01-26T02:42:49.087Z,15.47
2019-01-26T02:45:16.389Z,18.20
2019-01-26T02:47:50.610Z,14.67
2019-01-26T02:50:17.822Z,17.23
2019-01-26T02:52:45.121Z,15.77
2019-01-26T02:58:06.223Z,16.53
2019-01-26T03:00:33.462Z,17.70
2019-01-26T03:03:00.680Z,19.93
2019-01-26T03:05:27.933Z,17.90
2019-01-26T03:07:55.145Z,13.40
2019-01-26T03:13:16.222Z,14.87
2019-01-26T03:15:43.465Z,11.93
2019-01-26T03:18:10.698Z,10.97
2019-01-26T03:20:37.899Z,10.77
2019-01-26T03:23:05.133Z,11.20
2019-01-26T03:25:32.334Z,8.70
2019-01-26T03:27:59.569Z,11.47
2019-01-26T03:30:26.791Z,9.00
2019-01-26T03:32:54.043Z,8.27
2019-01-26T03:35:21.227Z,8.53
2019-01-26T03:37:48.434Z,7.63
2019-01-26T03:40:35.006Z,7.17
2019-01-26T03:43:02.253Z,13.10
2019-01-26T03:45:29.462Z,10.27
2019-01-26T03:47:56.670Z,8.47
2019-01-26T03:50:23.893Z,7.47
2019-01-26T03:52:51.098Z,7.00
2019-01-26T03:55:37.912Z,10.17
2019-01-26T03:58:05.133Z,7.23
2019-01-26T04:00:32.362Z,9.87
2019-01-26T04:02:59.874Z,6.93
2019-01-26T04:05:27.098Z,6.67
2019-01-26T04:07:54.302Z,7.83
2019-01-26T04:10:21.532Z,8.77
2019-01-26T04:12:48.742Z,9.00
2019-01-26T04:18:09.615Z,8.67
2019-01-26T04:20:37.162Z,8.50
2019-01-26T04:23:04.719Z,10.17
2019-01-26T04:25:31.943Z,10.10
2019-01-26T04:27:59.422Z,8.03
2019-01-26T04:30:26.638Z,12.37
2019-01-26T04:32:54.263Z,10.40
2019-01-26T04:35:21.492Z,10.90
2019-01-26T04:37:48.695Z,14.23
2019-01-26T04:40:36.763Z,13.10
2019-01-26T04:43:04.066Z,14.13
2019-01-26T04:45:31.267Z,11.87
2019-01-26T04:47:58.843Z,10.27
2019-01-26T04:50:26.294Z,15.47
2019-01-26T04:52:53.529Z,11.53
2019-01-26T04:55:20.814Z,12.37
2019-01-26T04:57:48.163Z,13.53
2019-01-26T05:03:08.959Z,11.83
2019-01-26T05:05:36.431Z,14.93
2019-01-26T05:08:03.731Z,11.33
2019-01-26T05:10:30.966Z,13.47
2019-01-26T05:12:58.175Z,13.30
2019-01-26T05:15:25.404Z,16.17
2019-01-26T05:17:52.885Z,12.30
2019-01-26T05:20:39.440Z,15.50
2019-01-26T05:23:06.950Z,15.30
2019-01-26T05:25:34.180Z,17.07
2019-01-26T05:28:02.168Z,15.50
2019-01-26T05:30:29.393Z,17.70
2019-01-26T05:32:56.631Z,20.33
2019-01-26T05:35:23.842Z,19.07
2019-01-26T05:37:51.055Z,17.20
2019-01-26T05:43:12.502Z,23.77
2019-01-26T05:45:39.738Z,24.30
2019-01-26T05:48:06.962Z,24.40
2019-01-26T05:50:34.179Z,24.07
2019-01-26T05:53:01.730Z,25.90
2019-01-26T05:58:23.256Z,26.43
2019-01-26T06:00:50.461Z,29.27
2019-01-26T06:03:17.703Z,28.57
2019-01-26T06:05:44.915Z,22.83
2019-01-26T06:08:12.145Z,27.93
2019-01-26T06:10:39.375Z,28.87
2019-01-26T06:13:06.609Z,32.13
2019-01-26T06:15:33.817Z,30.03
2019-01-26T06:18:01.056Z,30.43
2019-01-26T06:20:28.513Z,32.93
2019-01-26T06:22:55.745Z,31.47
2019-01-26T06:25:23.218Z,33.60
2019-01-26T06:27:50.453Z,27.87
2019-01-26T06:30:37.270Z,32.50
2019-01-26T06:33:04.505Z,27.60
2019-01-26T06:35:31.746Z,33.53
2019-01-26T06:37:58.961Z,31.03
2019-01-26T06:40:26.198Z,28.63
2019-01-26T06:42:53.412Z,31.77
2019-01-26T06:48:14.046Z,33.60
2019-01-26T06:50:41.262Z,30.23
2019-01-26T06:53:08.497Z,26.50
2019-01-26T06:55:35.737Z,27.27
2019-01-26T06:58:02.953Z,32.10
2019-01-26T07:03:04.538Z,27.53
2019-01-26T07:05:51.282Z,29.60
2019-01-26T07:08:18.794Z,24.87
2019-01-26T07:10:46.012Z,25.83
2019-01-26T07:13:13.246Z,29.10
2019-01-26T07:15:40.497Z,23.67
2019-01-26T07:18:09.617Z,22.87
2019-01-26T07:20:36.677Z,23.63
2019-01-26T07:23:03.964Z,21.30
2019-01-26T07:25:31.494Z,19.47
2019-01-26T07:27:58.725Z,20.17
2019-01-26T07:33:33.215Z,25.47
2019-01-26T07:36:00.426Z,20.90
2019-01-26T07:38:27.657Z,20.87
2019-01-26T07:40:55.249Z,22.23
2019-01-26T07:43:22.465Z,18.00
2019-01-26T07:45:49.678Z,19.50
2019-01-26T07:48:17.136Z,19.13
2019-01-26T07:50:45.916Z,19.23
2019-01-26T07:53:13.159Z,21.93
2019-01-26T07:55:40.374Z,25.80
2019-01-26T07:58:07.954Z,25.87
2019-01-26T08:00:35.166Z,24.83
2019-01-26T08:03:02.404Z,27.07
2019-01-26T08:05:29.614Z,23.63
2019-01-26T08:07:56.842Z,21.20
2019-01-26T08:13:17.882Z,21.83
2019-01-26T08:15:45.117Z,19.27
2019-01-26T08:18:12.590Z,17.27
2019-01-26T08:20:39.843Z,18.77
2019-01-26T08:23:07.293Z,14.13
2019-01-26T08:25:34.518Z,10.90
2019-01-26T08:28:02.002Z,11.00
2019-01-26T08:30:29.557Z,8.83
2019-01-26T08:32:56.789Z,8.80
2019-01-26T08:35:24.120Z,7.03
2019-01-26T08:37:51.389Z,5.73
2019-01-26T08:43:12.759Z,4.87
2019-01-26T08:45:39.962Z,8.47
2019-01-26T08:48:07.466Z,5.73
2019-01-26T08:50:34.685Z,7.30
2019-01-26T08:53:02.269Z,5.63
2019-01-26T08:55:29.587Z,7.77
2019-01-26T08:57:56.788Z,5.97
2019-01-26T09:06:11.981Z,4.40
2019-01-26T09:08:39.436Z,5.90
2019-01-26T09:11:06.660Z,4.20
2019-01-26T09:13:33.874Z,3.60
2019-01-26T09:16:01.390Z,3.53
2019-01-26T09:18:28.950Z,4.00
2019-01-26T09:20:56.185Z,5.93
2019-01-26T09:23:23.394Z,5.47
2019-01-26T09:25:50.602Z,5.30
2019-01-26T09:30:52.780Z,5.77
2019-01-26T09:33:20.003Z,5.03
2019-01-26T09:35:47.431Z,5.60
2019-01-26T09:38:15.042Z,5.07
2019-01-26T09:40:42.607Z,5.37
2019-01-26T09:43:09.906Z,5.23
2019-01-26T09:45:37.113Z,3.73
2019-01-26T09:50:58.363Z,3.47
2019-01-26T09:53:25.590Z,4.70
2019-01-26T09:55:52.793Z,2.90
2019-01-26T09:58:20.312Z,2.93
2019-01-26T10:00:47.522Z,2.20
2019-01-26T10:03:14.751Z,2.73
2019-01-26T10:05:42.258Z,2.20
2019-01-26T10:08:09.485Z,2.53
2019-01-26T10:10:36.963Z,2.57
2019-01-26T10:15:58.818Z,2.70
2019-01-26T10:18:26.121Z,3.07
2019-01-26T10:20:53.345Z,2.70
2019-01-26T10:23:20.869Z,2.20
2019-01-26T10:25:48.722Z,2.17
2019-01-26T10:28:17.038Z,2.50
2019-01-26T10:33:19.190Z,2.40
2019-01-26T10:36:05.918Z,3.07
2019-01-26T10:44:00.942Z,2.53
2019-01-26T10:46:28.155Z,3.13
2019-01-26T10:49:00.586Z,2.53
2019-01-26T10:51:24.297Z,2.63
2019-01-26T10:53:51.555Z,2.43
2019-01-26T10:56:18.795Z,2.50
2019-01-26T10:58:46.018Z,3.27
2019-01-26T11:01:13.218Z,3.87
2019-01-26T11:03:40.493Z,3.67
2019-01-26T11:06:08.034Z,3.40
2019-01-26T11:08:35.257Z,4.93
2019-01-26T11:11:02.462Z,3.63
2019-01-26T11:13:29.697Z,5.27
2019-01-26T11:15:56.907Z,4.37
2019-01-26T11:18:24.106Z,4.00
2019-01-26T11:20:51.329Z,4.53
2019-01-26T11:23:18.610Z,5.57
2019-01-26T11:25:46.154Z,5.23
2019-01-26T11:28:13.353Z,4.80
2019-01-26T11:30:40.574Z,4.77
2019-01-26T11:33:07.781Z,4.50
2019-01-26T11:35:35.014Z,6.90
2019-01-26T11:38:02.527Z,5.47
2019-01-26T11:40:29.749Z,4.37
2019-01-26T11:42:56.950Z,5.67
2019-01-26T11:53:15.422Z,5.60
2019-01-26T11:58:30.736Z,6.33
2019-01-26T12:01:17.230Z,6.23
2019-01-26T12:09:01.105Z,7.37
2019-01-26T12:11:28.303Z,5.57
2019-01-26T12:13:55.522Z,5.90
2019-01-26T12:16:26.924Z,5.67
2019-01-26T12:18:51.700Z,6.20
2019-01-26T12:21:18.921Z,5.17
2019-01-26T12:23:46.137Z,6.17
2019-01-26T12:26:13.425Z,5.60
2019-01-26T12:28:40.661Z,4.73
2019-01-26T12:31:07.871Z,7.03
2019-01-26T12:33:35.099Z,4.93
2019-01-26T12:36:02.305Z,4.33
2019-01-26T12:38:29.530Z,5.17
2019-01-26T12:40:56.733Z,5.30
2019-01-26T12:43:23.962Z,5.33
2019-01-26T12:45:51.185Z,5.10
2019-01-26T12:48:18.409Z,4.07
2019-01-26T12:50:45.614Z,5.07
2019-01-26T12:53:13.251Z,5.47
2019-01-26T12:55:40.558Z,4.67
2019-01-26T12:58:08.053Z,4.77
2019-01-26T13:03:29.422Z,6.00
2019-01-26T13:05:56.934Z,4.50
2019-01-26T13:08:24.150Z,3.97
2019-01-26T13:11:10.714Z,4.00
2019-01-26T13:13:38.249Z,3.20
2019-01-26T13:16:05.477Z,2.73
2019-01-26T13:18:32.686Z,2.17
2019-01-26T13:21:00.208Z,2.80
2019-01-26T13:23:27.410Z,2.93
2019-01-26T13:25:54.614Z,2.23
2019-01-26T13:28:21.868Z,1.97
2019-01-26T13:30:49.082Z,2.77
2019-01-26T13:36:10.370Z,2.27
2019-01-26T13:38:37.998Z,1.83
2019-01-26T13:41:05.210Z,2.20
2019-01-26T13:43:32.425Z,3.03
2019-01-26T13:45:59.654Z,1.63
2019-01-26T13:48:27.207Z,1.30
2019-01-26T13:50:54.430Z,1.53
2019-01-26T13:53:21.650Z,1.10
2019-01-26T13:55:48.853Z,1.20
2019-01-26T13:58:16.417Z,1.23
2019-01-26T14:00:43.627Z,1.23
2019-01-26T14:03:10.858Z,1.23
2019-01-26T14:05:38.067Z,1.57
2019-01-26T14:08:05.634Z,1.60
2019-01-26T14:10:33.086Z,1.53
2019-01-26T14:13:00.314Z,2.53
2019-01-26T14:15:27.789Z,1.27
2019-01-26T14:17:55.097Z,1.87
2019-01-26T14:20:41.886Z,1.67
2019-01-26T14:23:09.126Z,1.20
2019-01-26T14:25:36.324Z,0.93
2019-01-26T14:30:57.670Z,2.27
2019-01-26T14:33:24.883Z,1.10
2019-01-26T14:35:52.606Z,2.37
2019-01-26T14:38:19.836Z,2.10
2019-01-26T14:40:47.312Z,2.40
2019-01-26T14:43:14.537Z,1.87
2019-01-26T14:45:41.734Z,2.23
2019-01-26T14:48:08.971Z,2.60
2019-01-26T14:50:36.166Z,1.87
2019-01-26T14:53:03.401Z,2.47
2019-01-26T14:58:37.873Z,3.47
2019-01-26T15:01:05.085Z,2.97
2019-01-26T15:03:32.611Z,5.43
2019-01-26T15:06:00.551Z,3.83
2019-01-26T15:08:28.770Z,4.33
2019-01-26T15:10:55.974Z,4.10
2019-01-26T15:13:23.209Z,4.00
2019-01-26T15:15:50.411Z,3.50
2019-01-26T15:18:17.634Z,1.90
2019-01-26T15:20:45.113Z,2.10
2019-01-26T15:23:12.452Z,3.00
2019-01-26T15:25:41.293Z,1.80
2019-01-26T15:28:08.805Z,2.20
2019-01-26T15:33:29.689Z,2.23
2019-01-26T15:35:56.915Z,1.30
2019-01-26T15:38:24.148Z,1.47
2019-01-26T15:40:51.370Z,1.73
2019-01-26T15:43:18.858Z,1.30
2019-01-26T15:45:46.059Z,1.50
2019-01-26T15:48:13.335Z,3.67
2019-01-26T15:50:42.003Z,4.53
2019-01-26T15:53:09.519Z,2.37
2019-01-26T15:55:36.722Z,7.03
2019-01-26T16:00:57.530Z,1.20
2019-01-26T16:03:24.741Z,1.17
2019-01-26T16:05:51.982Z,2.20
2019-01-26T16:08:19.188Z,1.10
2019-01-26T16:10:46.391Z,1.60
2019-01-26T16:13:13.634Z,1.40
2019-01-26T16:15:40.847Z,2.27
2019-01-26T16:21:02.291Z,1.40
2019-01-26T16:23:29.512Z,1.63
2019-01-26T16:25:56.998Z,4.30
2019-01-26T16:28:24.223Z,2.53
2019-01-26T16:30:51.437Z,1.60
2019-01-26T16:33:18.642Z,1.70
2019-01-26T16:35:46.210Z,1.70
2019-01-26T16:38:13.409Z,1.97
2019-01-26T16:40:40.614Z,1.40
2019-01-26T16:43:07.844Z,1.53
2019-01-26T16:48:28.522Z,1.60
2019-01-26T16:50:55.721Z,1.93
2019-01-26T16:53:22.946Z,1.73
2019-01-26T16:55:50.149Z,1.87
2019-01-26T16:58:17.370Z,1.60
2019-01-26T17:03:52.126Z,2.40
2019-01-26T17:06:19.323Z,1.90
2019-01-26T17:08:46.521Z,2.23
2019-01-26T17:11:14.090Z,2.00
2019-01-26T17:13:41.289Z,2.97
2019-01-26T17:16:08.514Z,1.60
2019-01-26T17:18:36.040Z,2.20
2019-01-26T17:21:03.273Z,2.30
2019-01-26T17:23:30.474Z,2.00
2019-01-26T17:25:57.701Z,2.13
2019-01-26T17:28:24.919Z,2.40
2019-01-26T17:30:52.161Z,2.67
2019-01-26T17:33:19.378Z,2.83
2019-01-26T17:35:46.593Z,2.40
2019-01-26T17:38:13.800Z,2.53
2019-01-26T17:40:41.026Z,2.03
2019-01-26T17:43:08.553Z,2.40
2019-01-26T17:45:35.789Z,2.33
2019-01-26T17:48:03.021Z,2.80
2019-01-26T17:50:30.234Z,2.77
2019-01-26T17:52:57.441Z,3.17
2019-01-26T17:55:24.667Z,2.87
2019-01-26T17:57:51.873Z,2.63
2019-01-26T18:00:57.730Z,2.20
2019-01-26T18:03:24.937Z,2.40
2019-01-26T18:05:52.146Z,3.87
2019-01-26T18:08:19.385Z,2.70
2019-01-26T18:10:46.597Z,3.13
2019-01-26T18:13:13.801Z,2.63
2019-01-26T18:15:41.026Z,2.20
2019-01-26T18:18:08.278Z,2.63
2019-01-26T18:20:35.482Z,3.40
2019-01-26T18:28:29.250Z,3.30
2019-01-26T18:30:56.521Z,2.33
2019-01-26T18:33:23.723Z,6.13
2019-01-26T18:35:50.955Z,2.60
2019-01-26T18:38:18.434Z,2.17
2019-01-26T18:40:45.986Z,2.60
2019-01-26T18:43:13.189Z,2.07
2019-01-26T18:45:40.698Z,4.07
2019-01-26T18:48:07.901Z,1.83
2019-01-26T18:53:28.627Z,2.87
2019-01-26T18:55:55.849Z,1.60
2019-01-26T18:58:23.057Z,3.77
2019-01-26T19:00:50.278Z,2.30
2019-01-26T19:06:24.754Z,2.10
2019-01-26T19:08:51.982Z,1.57
2019-01-26T19:11:19.186Z,2.30
2019-01-26T19:13:46.410Z,1.77
2019-01-26T19:16:13.635Z,2.37
2019-01-26T19:18:40.850Z,1.43
2019-01-26T19:21:08.073Z,1.27
2019-01-26T19:23:35.315Z,2.13
2019-01-26T19:26:02.518Z,2.30
2019-01-26T19:28:29.717Z,2.47
2019-01-26T19:30:56.942Z,1.20
2019-01-26T19:33:24.159Z,2.17
2019-01-26T19:35:51.441Z,2.90
2019-01-26T19:38:18.654Z,1.20
2019-01-26T19:40:45.878Z,1.27
2019-01-26T19:43:13.078Z,1.20
2019-01-26T19:45:40.569Z,1.40
2019-01-26T19:48:08.130Z,1.83
2019-01-26T19:50:35.357Z,2.07
2019-01-26T19:53:02.634Z,1.23
2019-01-26T19:55:29.859Z,2.30
2019-01-26T19:57:57.062Z,1.17
2019-01-26T20:00:24.299Z,1.07
2019-01-26T20:02:51.498Z,1.23
2019-01-26T20:05:38.306Z,1.40
2019-01-26T20:08:05.505Z,1.03
2019-01-26T20:13:26.270Z,1.00
2019-01-26T20:15:53.501Z,1.43
2019-01-26T20:18:21.029Z,0.80
2019-01-26T20:20:48.263Z,1.30
2019-01-26T20:23:15.453Z,1.03
2019-01-26T20:25:42.682Z,0.80
2019-01-26T20:28:09.894Z,1.00
2019-01-26T20:30:38.554Z,1.10
2019-01-26T20:33:06.070Z,1.20
2019-01-26T20:35:33.642Z,1.30
2019-01-26T20:38:00.865Z,0.97
2019-01-26T20:40:28.078Z,1.50
2019-01-26T20:42:55.305Z,1.80
2019-01-26T20:48:30.134Z,1.37
2019-01-26T20:50:57.338Z,1.20
2019-01-26T20:53:24.830Z,2.43
2019-01-26T20:55:52.088Z,1.90
2019-01-26T20:58:19.306Z,5.70
2019-01-26T21:00:46.793Z,1.23
2019-01-26T21:03:13.993Z,0.83
2019-01-26T21:05:41.237Z,1.00
2019-01-26T21:08:08.442Z,1.10
2019-01-26T21:10:35.678Z,1.07
2019-01-26T21:13:02.882Z,1.63
2019-01-26T21:15:30.118Z,1.50
2019-01-26T21:17:57.649Z,1.30
2019-01-26T21:23:18.398Z,1.20
2019-01-26T21:25:45.630Z,1.27
2019-01-26T21:28:12.833Z,1.40
2019-01-26T21:30:40.037Z,1.20
2019-01-26T21:33:07.344Z,1.20
2019-01-26T21:35:34.545Z,1.20
2019-01-26T21:38:01.746Z,1.00
2019-01-26T21:43:23.034Z,1.70
2019-01-26T21:45:50.249Z,1.80
2019-01-26T21:48:17.809Z,1.37
2019-01-26T21:50:45.017Z,1.40
2019-01-26T21:53:12.522Z,1.17
2019-01-26T21:55:39.745Z,1.30
2019-01-26T21:58:06.954Z,1.60
2019-01-26T22:00:34.177Z,1.80
2019-01-26T22:03:01.389Z,1.40
2019-01-26T22:05:28.617Z,1.30
2019-01-26T22:07:55.941Z,3.50
2019-01-26T22:13:17.258Z,1.70
2019-01-26T22:15:44.482Z,3.67
2019-01-26T22:18:11.706Z,2.83
2019-01-26T22:20:38.997Z,2.53
2019-01-26T22:23:06.274Z,2.37
2019-01-26T22:25:33.497Z,1.10
2019-01-26T22:28:00.719Z,3.27
2019-01-26T22:33:21.890Z,1.73
2019-01-26T22:35:49.354Z,1.60
2019-01-26T22:38:16.907Z,2.67
2019-01-26T22:40:44.367Z,2.47
2019-01-26T22:43:11.581Z,2.63
2019-01-26T22:45:39.069Z,2.60
2019-01-26T22:48:06.298Z,2.00
2019-01-26T22:50:33.502Z,2.30
2019-01-26T22:53:00.824Z,2.57
2019-01-26T22:58:22.384Z,2.40
2019-01-26T23:01:08.935Z,2.83
2019-01-26T23:03:55.498Z,2.63
2019-01-26T23:06:43.554Z,1.67
2019-01-26T23:15:30.911Z,1.40
2019-01-26T23:21:11.866Z,2.23
2019-01-26T23:23:58.687Z,2.00
2019-01-26T23:26:45.255Z,1.70
2019-01-26T23:32:19.801Z,1.90
2019-01-26T23:34:47.013Z,1.40
2019-01-26T23:37:14.226Z,1.60
2019-01-26T23:39:41.786Z,1.40
2019-01-26T23:42:09.081Z,1.93
2019-01-26T23:44:36.316Z,0.80
2019-01-26T23:47:03.528Z,1.30
2019-01-26T23:49:30.745Z,0.73
2019-01-26T23:51:58.041Z,1.03
2019-01-26T23:54:25.253Z,1.33
2019-01-26T23:56:52.474Z,0.70
2019-01-26T23:59:19.677Z,0.67
